sensor_id;sensor_type;location;lat;lon;timestamp;P1;durP1;ratioP1;P2;durP2;ratioP2
58784;SDS011;44557;51.862;19.378;2023-02-28T00:01:16;42.20;;;20.60;;
58784;SDS011;44557;51.862;19.378;2023-02-28T00:03:17;45.90;;;21.30;;
58784;SDS011;44557;51.862;19.378;2023-02-28T00:05:19;50.80;;;21.50;;
58784;SDS011;44557;51.862;19.378;2023-02-28T00:07:22;54.00;;;23.00;;
58784;SDS011;44557;51.862;19.378;2023-02-28T00:09:23;51.00;;;21.50;;
58784;SDS011;44557;51.862;19.378;2023-02-28T00:11:24;43.40;;;20.50;;
58784;SDS011;44557;51.862;19.378;2023-02-28T00:13:25;29.90;;;15.00;;
58784;SDS011;44557;51.862;19.378;2023-02-28T00:15:26;35.60;;;16.90;;
58784;SDS011;44557;51.862;19.378;2023-02-28T00:17:27;36.50;;;16.90;;
58784;SDS011;44557;51.862;19.378;2023-02-28T00:19:28;23.20;;;12.50;;
58784;SDS011;44557;51.862;19.378;2023-02-28T00:21:29;33.30;;;14.70;;
58784;SDS011;44557;51.862;19.378;2023-02-28T00:23:30;34.20;;;16.00;;
58784;SDS011;44557;51.862;19.378;2023-02-28T00:25:31;29.20;;;14.40;;
58784;SDS011;44557;51.862;19.378;2023-02-28T00:27:33;30.90;;;15.80;;
58784;SDS011;44557;51.862;19.378;2023-02-28T00:29:35;27.20;;;13.60;;
58784;SDS011;44557;51.862;19.378;2023-02-28T00:31:37;29.70;;;14.90;;
58784;SDS011;44557;51.862;19.378;2023-02-28T00:33:38;30.30;;;16.70;;
58784;SDS011;44557;51.862;19.378;2023-02-28T00:35:39;30.10;;;16.00;;
58784;SDS011;44557;51.862;19.378;2023-02-28T00:37:40;22.80;;;14.30;;
58784;SDS011;44557;51.862;19.378;2023-02-28T00:39:41;22.40;;;13.20;;
58784;SDS011;44557;51.862;19.378;2023-02-28T00:41:42;17.80;;;11.30;;
58784;SDS011;44557;51.862;19.378;2023-02-28T00:43:44;17.90;;;10.90;;
58784;SDS011;44557;51.862;19.378;2023-02-28T00:45:44;17.50;;;11.00;;
58784;SDS011;44557;51.862;19.378;2023-02-28T00:47:45;21.70;;;13.50;;
58784;SDS011;44557;51.862;19.378;2023-02-28T00:49:50;19.40;;;11.70;;
58784;SDS011;44557;51.862;19.378;2023-02-28T00:51:51;23.60;;;13.50;;
58784;SDS011;44557;51.862;19.378;2023-02-28T00:53:53;23.30;;;14.70;;
58784;SDS011;44557;51.862;19.378;2023-02-28T00:55:54;21.20;;;13.10;;
58784;SDS011;44557;51.862;19.378;2023-02-28T00:57:55;25.80;;;14.50;;
58784;SDS011;44557;51.862;19.378;2023-02-28T00:59:56;24.90;;;14.40;;
58784;SDS011;44557;51.862;19.378;2023-02-28T01:01:57;25.20;;;14.20;;
58784;SDS011;44557;51.862;19.378;2023-02-28T01:03:59;24.30;;;13.50;;
58784;SDS011;44557;51.862;19.378;2023-02-28T01:05:59;22.80;;;13.10;;
58784;SDS011;44557;51.862;19.378;2023-02-28T01:08:00;24.40;;;14.00;;
58784;SDS011;44557;51.862;19.378;2023-02-28T01:10:01;19.00;;;11.50;;
58784;SDS011;44557;51.862;19.378;2023-02-28T01:12:03;17.80;;;11.30;;
58784;SDS011;44557;51.862;19.378;2023-02-28T01:14:04;16.00;;;10.30;;
58784;SDS011;44557;51.862;19.378;2023-02-28T01:16:05;16.30;;;10.30;;
58784;SDS011;44557;51.862;19.378;2023-02-28T01:18:07;16.70;;;11.30;;
58784;SDS011;44557;51.862;19.378;2023-02-28T01:20:08;16.90;;;10.90;;
58784;SDS011;44557;51.862;19.378;2023-02-28T01:22:10;18.90;;;12.10;;
58784;SDS011;44557;51.862;19.378;2023-02-28T01:24:11;18.20;;;12.20;;
58784;SDS011;44557;51.862;19.378;2023-02-28T01:26:15;20.70;;;12.40;;
58784;SDS011;44557;51.862;19.378;2023-02-28T01:28:18;17.80;;;12.00;;
58784;SDS011;44557;51.862;19.378;2023-02-28T01:30:19;19.60;;;12.40;;
58784;SDS011;44557;51.862;19.378;2023-02-28T01:32:20;15.30;;;10.50;;
58784;SDS011;44557;51.862;19.378;2023-02-28T01:34:21;16.50;;;11.40;;
58784;SDS011;44557;51.862;19.378;2023-02-28T01:36:23;16.50;;;11.10;;
58784;SDS011;44557;51.862;19.378;2023-02-28T01:38:25;15.30;;;10.80;;
58784;SDS011;44557;51.862;19.378;2023-02-28T01:40:26;17.60;;;10.80;;
58784;SDS011;44557;51.862;19.378;2023-02-28T01:42:27;16.80;;;11.70;;
58784;SDS011;44557;51.862;19.378;2023-02-28T01:46:55;16.90;;;11.40;;
58784;SDS011;44557;51.862;19.378;2023-02-28T01:51:20;17.50;;;11.90;;
58784;SDS011;44557;51.862;19.378;2023-02-28T01:53:29;18.80;;;11.70;;
58784;SDS011;44557;51.862;19.378;2023-02-28T01:55:34;16.30;;;11.90;;
58784;SDS011;44557;51.862;19.378;2023-02-28T01:57:38;16.00;;;11.60;;
58784;SDS011;44557;51.862;19.378;2023-02-28T02:01:53;17.30;;;12.50;;
58784;SDS011;44557;51.862;19.378;2023-02-28T02:03:56;16.50;;;11.90;;
58784;SDS011;44557;51.862;19.378;2023-02-28T02:05:59;19.20;;;12.10;;
58784;SDS011;44557;51.862;19.378;2023-02-28T02:08:02;17.10;;;12.40;;
58784;SDS011;44557;51.862;19.378;2023-02-28T02:10:10;20.10;;;13.30;;
58784;SDS011;44557;51.862;19.378;2023-02-28T02:12:21;20.50;;;13.30;;
58784;SDS011;44557;51.862;19.378;2023-02-28T02:14:32;20.70;;;13.50;;
58784;SDS011;44557;51.862;19.378;2023-02-28T02:19:33;22.30;;;15.70;;
58784;SDS011;44557;51.862;19.378;2023-02-28T02:24:16;23.60;;;16.80;;
58784;SDS011;44557;51.862;19.378;2023-02-28T02:29:16;23.40;;;16.30;;
58784;SDS011;44557;51.862;19.378;2023-02-28T02:36:31;20.70;;;15.50;;
58784;SDS011;44557;51.862;19.378;2023-02-28T02:38:38;21.20;;;15.60;;
58784;SDS011;44557;51.862;19.378;2023-02-28T02:41:08;23.10;;;16.00;;
58784;SDS011;44557;51.862;19.378;2023-02-28T02:43:18;25.70;;;16.90;;
58784;SDS011;44557;51.862;19.378;2023-02-28T02:45:31;25.60;;;16.90;;
58784;SDS011;44557;51.862;19.378;2023-02-28T02:47:37;23.00;;;16.70;;
58784;SDS011;44557;51.862;19.378;2023-02-28T02:49:51;24.40;;;17.10;;
58784;SDS011;44557;51.862;19.378;2023-02-28T02:51:55;21.70;;;16.30;;
58784;SDS011;44557;51.862;19.378;2023-02-28T02:54:10;23.30;;;16.50;;
58784;SDS011;44557;51.862;19.378;2023-02-28T02:56:17;23.50;;;16.40;;
58784;SDS011;44557;51.862;19.378;2023-02-28T02:58:26;21.00;;;15.60;;
58784;SDS011;44557;51.862;19.378;2023-02-28T03:00:34;21.00;;;15.90;;
58784;SDS011;44557;51.862;19.378;2023-02-28T03:02:39;25.30;;;17.10;;
58784;SDS011;44557;51.862;19.378;2023-02-28T03:04:50;20.80;;;16.20;;
58784;SDS011;44557;51.862;19.378;2023-02-28T03:06:54;20.80;;;15.90;;
58784;SDS011;44557;51.862;19.378;2023-02-28T03:08:56;23.30;;;16.20;;
58784;SDS011;44557;51.862;19.378;2023-02-28T03:10:58;20.40;;;15.20;;
58784;SDS011;44557;51.862;19.378;2023-02-28T03:15:18;22.10;;;16.60;;
58784;SDS011;44557;51.862;19.378;2023-02-28T03:17:51;22.50;;;16.20;;
58784;SDS011;44557;51.862;19.378;2023-02-28T03:24:55;22.50;;;15.90;;
58784;SDS011;44557;51.862;19.378;2023-02-28T03:27:06;24.40;;;16.50;;
58784;SDS011;44557;51.862;19.378;2023-02-28T03:29:13;22.80;;;14.80;;
58784;SDS011;44557;51.862;19.378;2023-02-28T03:33:43;22.40;;;15.60;;
58784;SDS011;44557;51.862;19.378;2023-02-28T03:35:59;23.10;;;15.70;;
58784;SDS011;44557;51.862;19.378;2023-02-28T03:38:08;24.00;;;15.90;;
58784;SDS011;44557;51.862;19.378;2023-02-28T03:40:15;22.50;;;16.50;;
58784;SDS011;44557;51.862;19.378;2023-02-28T03:42:23;23.30;;;16.70;;
58784;SDS011;44557;51.862;19.378;2023-02-28T03:46:48;22.00;;;16.20;;
58784;SDS011;44557;51.862;19.378;2023-02-28T03:49:19;23.50;;;17.10;;
58784;SDS011;44557;51.862;19.378;2023-02-28T03:51:27;24.70;;;18.10;;
58784;SDS011;44557;51.862;19.378;2023-02-28T03:53:34;23.50;;;16.20;;
58784;SDS011;44557;51.862;19.378;2023-02-28T03:55:48;23.30;;;17.00;;
58784;SDS011;44557;51.862;19.378;2023-02-28T03:58:01;22.50;;;16.80;;
58784;SDS011;44557;51.862;19.378;2023-02-28T04:00:17;22.30;;;16.80;;
58784;SDS011;44557;51.862;19.378;2023-02-28T04:02:21;23.20;;;16.60;;
58784;SDS011;44557;51.862;19.378;2023-02-28T04:04:22;23.80;;;17.10;;
58784;SDS011;44557;51.862;19.378;2023-02-28T04:06:23;23.20;;;17.10;;
58784;SDS011;44557;51.862;19.378;2023-02-28T04:08:25;23.60;;;17.10;;
58784;SDS011;44557;51.862;19.378;2023-02-28T04:10:27;24.50;;;16.20;;
58784;SDS011;44557;51.862;19.378;2023-02-28T04:12:27;26.20;;;16.30;;
58784;SDS011;44557;51.862;19.378;2023-02-28T04:14:28;23.50;;;17.20;;
58784;SDS011;44557;51.862;19.378;2023-02-28T04:16:31;22.50;;;15.90;;
58784;SDS011;44557;51.862;19.378;2023-02-28T04:18:33;23.40;;;16.60;;
58784;SDS011;44557;51.862;19.378;2023-02-28T04:20:34;24.50;;;17.40;;
58784;SDS011;44557;51.862;19.378;2023-02-28T04:22:35;23.30;;;16.40;;
58784;SDS011;44557;51.862;19.378;2023-02-28T04:24:37;24.00;;;16.80;;
58784;SDS011;44557;51.862;19.378;2023-02-28T04:26:42;31.90;;;19.50;;
58784;SDS011;44557;51.862;19.378;2023-02-28T04:28:45;25.70;;;18.10;;
58784;SDS011;44557;51.862;19.378;2023-02-28T04:30:46;29.30;;;19.00;;
58784;SDS011;44557;51.862;19.378;2023-02-28T04:32:48;29.20;;;19.50;;
58784;SDS011;44557;51.862;19.378;2023-02-28T04:34:48;35.00;;;20.90;;
58784;SDS011;44557;51.862;19.378;2023-02-28T04:36:50;38.80;;;22.90;;
58784;SDS011;44557;51.862;19.378;2023-02-28T04:38:51;37.90;;;22.60;;
58784;SDS011;44557;51.862;19.378;2023-02-28T04:40:53;35.10;;;21.30;;
58784;SDS011;44557;51.862;19.378;2023-02-28T04:42:53;32.40;;;20.20;;
58784;SDS011;44557;51.862;19.378;2023-02-28T04:44:54;35.40;;;20.80;;
58784;SDS011;44557;51.862;19.378;2023-02-28T04:46:55;32.50;;;20.80;;
58784;SDS011;44557;51.862;19.378;2023-02-28T04:48:56;31.70;;;20.40;;
58784;SDS011;44557;51.862;19.378;2023-02-28T04:51:00;36.40;;;22.00;;
58784;SDS011;44557;51.862;19.378;2023-02-28T04:53:03;35.90;;;21.60;;
58784;SDS011;44557;51.862;19.378;2023-02-28T04:55:04;34.00;;;21.70;;
58784;SDS011;44557;51.862;19.378;2023-02-28T04:57:06;35.00;;;22.10;;
58784;SDS011;44557;51.862;19.378;2023-02-28T04:59:07;35.20;;;22.40;;
58784;SDS011;44557;51.862;19.378;2023-02-28T05:01:27;38.90;;;24.10;;
58784;SDS011;44557;51.862;19.378;2023-02-28T05:03:30;39.00;;;24.80;;
58784;SDS011;44557;51.862;19.378;2023-02-28T05:05:31;38.60;;;26.00;;
58784;SDS011;44557;51.862;19.378;2023-02-28T05:07:32;46.90;;;32.20;;
58784;SDS011;44557;51.862;19.378;2023-02-28T05:09:33;51.10;;;32.20;;
58784;SDS011;44557;51.862;19.378;2023-02-28T05:11:35;46.50;;;32.30;;
58784;SDS011;44557;51.862;19.378;2023-02-28T05:13:36;46.60;;;31.70;;
58784;SDS011;44557;51.862;19.378;2023-02-28T05:15:38;47.40;;;31.60;;
58784;SDS011;44557;51.862;19.378;2023-02-28T05:17:39;49.80;;;31.50;;
58784;SDS011;44557;51.862;19.378;2023-02-28T05:19:40;56.50;;;34.70;;
58784;SDS011;44557;51.862;19.378;2023-02-28T05:21:41;57.90;;;35.90;;
58784;SDS011;44557;51.862;19.378;2023-02-28T05:23:51;56.70;;;35.50;;
58784;SDS011;44557;51.862;19.378;2023-02-28T05:25:52;57.20;;;35.90;;
58784;SDS011;44557;51.862;19.378;2023-02-28T05:27:54;57.80;;;35.80;;
58784;SDS011;44557;51.862;19.378;2023-02-28T05:29:56;61.90;;;37.20;;
58784;SDS011;44557;51.862;19.378;2023-02-28T05:31:57;55.10;;;35.30;;
58784;SDS011;44557;51.862;19.378;2023-02-28T05:33:57;54.40;;;33.00;;
58784;SDS011;44557;51.862;19.378;2023-02-28T05:35:58;55.70;;;33.70;;
58784;SDS011;44557;51.862;19.378;2023-02-28T05:38:00;50.20;;;32.80;;
58784;SDS011;44557;51.862;19.378;2023-02-28T05:40:01;50.50;;;32.90;;
58784;SDS011;44557;51.862;19.378;2023-02-28T05:42:07;51.20;;;33.70;;
58784;SDS011;44557;51.862;19.378;2023-02-28T05:44:08;47.70;;;31.90;;
58784;SDS011;44557;51.862;19.378;2023-02-28T05:46:10;48.70;;;30.60;;
58784;SDS011;44557;51.862;19.378;2023-02-28T05:48:11;44.10;;;29.50;;
58784;SDS011;44557;51.862;19.378;2023-02-28T05:50:13;42.60;;;27.90;;
58784;SDS011;44557;51.862;19.378;2023-02-28T05:52:15;39.70;;;26.60;;
58784;SDS011;44557;51.862;19.378;2023-02-28T05:54:16;36.60;;;25.40;;
58784;SDS011;44557;51.862;19.378;2023-02-28T05:56:17;33.60;;;23.30;;
58784;SDS011;44557;51.862;19.378;2023-02-28T05:58:18;32.30;;;22.70;;
58784;SDS011;44557;51.862;19.378;2023-02-28T06:00:19;32.30;;;21.90;;
58784;SDS011;44557;51.862;19.378;2023-02-28T06:02:21;34.40;;;22.30;;
58784;SDS011;44557;51.862;19.378;2023-02-28T06:04:22;31.50;;;21.00;;
58784;SDS011;44557;51.862;19.378;2023-02-28T06:06:23;30.30;;;19.60;;
58784;SDS011;44557;51.862;19.378;2023-02-28T06:08:24;28.30;;;19.10;;
58784;SDS011;44557;51.862;19.378;2023-02-28T06:10:24;28.30;;;18.40;;
58784;SDS011;44557;51.862;19.378;2023-02-28T06:12:25;29.90;;;17.60;;
58784;SDS011;44557;51.862;19.378;2023-02-28T06:14:27;26.70;;;17.60;;
58784;SDS011;44557;51.862;19.378;2023-02-28T06:16:29;24.80;;;17.10;;
58784;SDS011;44557;51.862;19.378;2023-02-28T06:18:31;30.60;;;17.70;;
58784;SDS011;44557;51.862;19.378;2023-02-28T06:20:32;28.10;;;18.80;;
58784;SDS011;44557;51.862;19.378;2023-02-28T06:22:34;30.70;;;19.90;;
58784;SDS011;44557;51.862;19.378;2023-02-28T06:24:36;33.50;;;21.00;;
58784;SDS011;44557;51.862;19.378;2023-02-28T06:26:37;33.40;;;22.40;;
58784;SDS011;44557;51.862;19.378;2023-02-28T06:28:38;33.50;;;22.40;;
58784;SDS011;44557;51.862;19.378;2023-02-28T06:30:39;41.10;;;25.00;;
58784;SDS011;44557;51.862;19.378;2023-02-28T06:32:40;46.80;;;28.50;;
58784;SDS011;44557;51.862;19.378;2023-02-28T06:34:41;42.10;;;28.10;;
58784;SDS011;44557;51.862;19.378;2023-02-28T06:36:42;43.50;;;26.80;;
58784;SDS011;44557;51.862;19.378;2023-02-28T06:38:44;44.40;;;27.70;;
58784;SDS011;44557;51.862;19.378;2023-02-28T06:40:52;42.60;;;26.10;;
58784;SDS011;44557;51.862;19.378;2023-02-28T06:42:54;39.10;;;25.80;;
58784;SDS011;44557;51.862;19.378;2023-02-28T06:44:55;36.70;;;23.70;;
58784;SDS011;44557;51.862;19.378;2023-02-28T06:46:57;39.40;;;23.70;;
58784;SDS011;44557;51.862;19.378;2023-02-28T06:48:58;37.20;;;23.10;;
58784;SDS011;44557;51.862;19.378;2023-02-28T06:51:03;37.60;;;22.60;;
58784;SDS011;44557;51.862;19.378;2023-02-28T06:53:08;35.70;;;22.40;;
58784;SDS011;44557;51.862;19.378;2023-02-28T06:55:09;38.90;;;23.30;;
58784;SDS011;44557;51.862;19.378;2023-02-28T06:57:11;39.30;;;21.90;;
58784;SDS011;44557;51.862;19.378;2023-02-28T06:59:12;39.50;;;21.40;;
58784;SDS011;44557;51.862;19.378;2023-02-28T07:01:13;40.60;;;22.90;;
58784;SDS011;44557;51.862;19.378;2023-02-28T07:03:14;41.80;;;24.00;;
58784;SDS011;44557;51.862;19.378;2023-02-28T07:05:16;48.90;;;25.70;;
58784;SDS011;44557;51.862;19.378;2023-02-28T07:07:17;50.30;;;26.30;;
58784;SDS011;44557;51.862;19.378;2023-02-28T07:09:18;58.60;;;31.70;;
58784;SDS011;44557;51.862;19.378;2023-02-28T07:11:20;51.30;;;28.40;;
58784;SDS011;44557;51.862;19.378;2023-02-28T07:13:23;46.70;;;27.30;;
58784;SDS011;44557;51.862;19.378;2023-02-28T07:15:24;45.10;;;27.00;;
58784;SDS011;44557;51.862;19.378;2023-02-28T07:17:25;39.40;;;23.00;;
58784;SDS011;44557;51.862;19.378;2023-02-28T07:19:26;39.00;;;23.50;;
58784;SDS011;44557;51.862;19.378;2023-02-28T07:21:28;36.50;;;22.90;;
58784;SDS011;44557;51.862;19.378;2023-02-28T07:23:30;35.40;;;20.20;;
58784;SDS011;44557;51.862;19.378;2023-02-28T07:25:31;28.90;;;16.70;;
58784;SDS011;44557;51.862;19.378;2023-02-28T07:27:33;30.30;;;17.00;;
58784;SDS011;44557;51.862;19.378;2023-02-28T07:29:35;29.00;;;16.30;;
58784;SDS011;44557;51.862;19.378;2023-02-28T07:31:36;27.20;;;16.20;;
58784;SDS011;44557;51.862;19.378;2023-02-28T07:33:37;24.90;;;14.00;;
58784;SDS011;44557;51.862;19.378;2023-02-28T07:35:38;22.70;;;14.10;;
58784;SDS011;44557;51.862;19.378;2023-02-28T07:37:39;21.30;;;13.40;;
58784;SDS011;44557;51.862;19.378;2023-02-28T07:39:40;27.60;;;13.90;;
58784;SDS011;44557;51.862;19.378;2023-02-28T07:41:44;21.70;;;13.90;;
58784;SDS011;44557;51.862;19.378;2023-02-28T07:43:46;23.90;;;14.40;;
58784;SDS011;44557;51.862;19.378;2023-02-28T07:45:47;21.10;;;12.40;;
58784;SDS011;44557;51.862;19.378;2023-02-28T07:47:48;18.20;;;11.20;;
58784;SDS011;44557;51.862;19.378;2023-02-28T07:49:49;17.10;;;10.80;;
58784;SDS011;44557;51.862;19.378;2023-02-28T07:51:51;17.10;;;10.80;;
58784;SDS011;44557;51.862;19.378;2023-02-28T07:53:52;20.10;;;12.50;;
58784;SDS011;44557;51.862;19.378;2023-02-28T07:55:56;19.50;;;12.20;;
58784;SDS011;44557;51.862;19.378;2023-02-28T07:57:58;16.70;;;10.10;;
58784;SDS011;44557;51.862;19.378;2023-02-28T07:59:59;19.80;;;11.90;;
58784;SDS011;44557;51.862;19.378;2023-02-28T08:02:00;15.40;;;10.30;;
58784;SDS011;44557;51.862;19.378;2023-02-28T08:04:02;17.20;;;11.10;;
58784;SDS011;44557;51.862;19.378;2023-02-28T08:06:04;18.90;;;12.60;;
58784;SDS011;44557;51.862;19.378;2023-02-28T08:08:07;22.80;;;14.10;;
58784;SDS011;44557;51.862;19.378;2023-02-28T08:10:09;21.70;;;12.90;;
58784;SDS011;44557;51.862;19.378;2023-02-28T08:12:12;16.10;;;10.50;;
58784;SDS011;44557;51.862;19.378;2023-02-28T08:14:13;18.20;;;10.60;;
58784;SDS011;44557;51.862;19.378;2023-02-28T08:16:14;14.90;;;9.30;;
58784;SDS011;44557;51.862;19.378;2023-02-28T08:18:17;18.20;;;10.80;;
58784;SDS011;44557;51.862;19.378;2023-02-28T08:20:18;17.80;;;10.30;;
58784;SDS011;44557;51.862;19.378;2023-02-28T08:22:19;19.10;;;10.70;;
58784;SDS011;44557;51.862;19.378;2023-02-28T08:24:21;14.90;;;9.70;;
58784;SDS011;44557;51.862;19.378;2023-02-28T08:26:25;13.80;;;8.90;;
58784;SDS011;44557;51.862;19.378;2023-02-28T08:28:26;14.60;;;9.40;;
58784;SDS011;44557;51.862;19.378;2023-02-28T08:30:27;14.60;;;8.90;;
58784;SDS011;44557;51.862;19.378;2023-02-28T08:32:28;11.60;;;7.50;;
58784;SDS011;44557;51.862;19.378;2023-02-28T08:34:29;13.50;;;7.40;;
58784;SDS011;44557;51.862;19.378;2023-02-28T08:36:29;12.50;;;7.10;;
58784;SDS011;44557;51.862;19.378;2023-02-28T08:38:30;11.50;;;7.20;;
58784;SDS011;44557;51.862;19.378;2023-02-28T08:40:31;12.90;;;7.30;;
58784;SDS011;44557;51.862;19.378;2023-02-28T08:42:32;11.10;;;7.00;;
58784;SDS011;44557;51.862;19.378;2023-02-28T08:44:33;11.00;;;7.20;;
58784;SDS011;44557;51.862;19.378;2023-02-28T08:46:34;16.80;;;8.00;;
58784;SDS011;44557;51.862;19.378;2023-02-28T08:48:35;13.70;;;8.70;;
58784;SDS011;44557;51.862;19.378;2023-02-28T08:50:38;13.20;;;9.00;;
58784;SDS011;44557;51.862;19.378;2023-02-28T08:52:39;14.10;;;8.60;;
58784;SDS011;44557;51.862;19.378;2023-02-28T08:54:43;13.20;;;6.70;;
58784;SDS011;44557;51.862;19.378;2023-02-28T08:56:45;13.80;;;7.40;;
58784;SDS011;44557;51.862;19.378;2023-02-28T08:58:49;14.20;;;8.30;;
58784;SDS011;44557;51.862;19.378;2023-02-28T09:00:51;13.60;;;7.50;;
58784;SDS011;44557;51.862;19.378;2023-02-28T09:02:52;11.80;;;6.60;;
58784;SDS011;44557;51.862;19.378;2023-02-28T09:04:53;13.70;;;6.80;;
58784;SDS011;44557;51.862;19.378;2023-02-28T09:06:56;10.40;;;5.70;;
58784;SDS011;44557;51.862;19.378;2023-02-28T09:08:57;11.70;;;7.00;;
58784;SDS011;44557;51.862;19.378;2023-02-28T09:10:59;14.10;;;7.10;;
58784;SDS011;44557;51.862;19.378;2023-02-28T09:13:02;14.00;;;8.80;;
58784;SDS011;44557;51.862;19.378;2023-02-28T09:15:03;14.40;;;8.40;;
58784;SDS011;44557;51.862;19.378;2023-02-28T09:17:04;15.20;;;8.80;;
58784;SDS011;44557;51.862;19.378;2023-02-28T09:19:05;13.10;;;8.10;;
58784;SDS011;44557;51.862;19.378;2023-02-28T09:21:07;13.90;;;8.30;;
58784;SDS011;44557;51.862;19.378;2023-02-28T09:23:10;13.10;;;8.20;;
58784;SDS011;44557;51.862;19.378;2023-02-28T09:25:13;12.00;;;7.70;;
58784;SDS011;44557;51.862;19.378;2023-02-28T09:27:14;12.60;;;7.70;;
58784;SDS011;44557;51.862;19.378;2023-02-28T09:29:15;12.90;;;7.80;;
58784;SDS011;44557;51.862;19.378;2023-02-28T09:31:18;13.00;;;8.10;;
58784;SDS011;44557;51.862;19.378;2023-02-28T09:33:28;11.80;;;7.90;;
58784;SDS011;44557;51.862;19.378;2023-02-28T09:35:29;13.30;;;8.80;;
58784;SDS011;44557;51.862;19.378;2023-02-28T09:37:31;13.20;;;8.00;;
58784;SDS011;44557;51.862;19.378;2023-02-28T09:39:32;12.00;;;8.60;;
58784;SDS011;44557;51.862;19.378;2023-02-28T09:41:37;12.60;;;7.80;;
58784;SDS011;44557;51.862;19.378;2023-02-28T09:43:49;14.20;;;8.60;;
58784;SDS011;44557;51.862;19.378;2023-02-28T09:46:02;11.40;;;7.90;;
58784;SDS011;44557;51.862;19.378;2023-02-28T09:48:37;13.50;;;8.40;;
58784;SDS011;44557;51.862;19.378;2023-02-28T09:53:25;13.10;;;8.90;;
58784;SDS011;44557;51.862;19.378;2023-02-28T09:55:38;13.60;;;8.60;;
58784;SDS011;44557;51.862;19.378;2023-02-28T09:57:47;12.80;;;8.60;;
58784;SDS011;44557;51.862;19.378;2023-02-28T09:59:57;12.20;;;7.80;;
58784;SDS011;44557;51.862;19.378;2023-02-28T10:05:08;10.90;;;6.80;;
58784;SDS011;44557;51.862;19.378;2023-02-28T10:09:26;14.10;;;8.80;;
58784;SDS011;44557;51.862;19.378;2023-02-28T10:11:32;14.80;;;9.50;;
58784;SDS011;44557;51.862;19.378;2023-02-28T10:13:36;13.60;;;8.80;;
58784;SDS011;44557;51.862;19.378;2023-02-28T10:15:42;13.90;;;9.20;;
58784;SDS011;44557;51.862;19.378;2023-02-28T10:17:47;13.20;;;8.50;;
58784;SDS011;44557;51.862;19.378;2023-02-28T10:22:03;14.00;;;9.40;;
58784;SDS011;44557;51.862;19.378;2023-02-28T10:26:18;15.10;;;9.10;;
58784;SDS011;44557;51.862;19.378;2023-02-28T10:28:20;12.40;;;8.30;;
58784;SDS011;44557;51.862;19.378;2023-02-28T10:30:21;13.10;;;8.50;;
58784;SDS011;44557;51.862;19.378;2023-02-28T10:32:34;15.10;;;8.40;;
58784;SDS011;44557;51.862;19.378;2023-02-28T10:34:36;11.30;;;8.00;;
58784;SDS011;44557;51.862;19.378;2023-02-28T10:36:37;11.10;;;7.90;;
58784;SDS011;44557;51.862;19.378;2023-02-28T10:38:39;12.50;;;7.90;;
58784;SDS011;44557;51.862;19.378;2023-02-28T10:40:40;11.50;;;7.80;;
58784;SDS011;44557;51.862;19.378;2023-02-28T10:45:13;11.90;;;7.10;;
58784;SDS011;44557;51.862;19.378;2023-02-28T10:47:16;11.30;;;7.90;;
58784;SDS011;44557;51.862;19.378;2023-02-28T10:49:24;11.60;;;7.40;;
58784;SDS011;44557;51.862;19.378;2023-02-28T10:51:33;11.20;;;7.20;;
58784;SDS011;44557;51.862;19.378;2023-02-28T10:53:45;11.00;;;7.30;;
58784;SDS011;44557;51.862;19.378;2023-02-28T10:55:56;12.20;;;7.90;;
58784;SDS011;44557;51.862;19.378;2023-02-28T10:58:22;12.60;;;8.10;;
58784;SDS011;44557;51.862;19.378;2023-02-28T11:00:25;11.50;;;8.30;;
58784;SDS011;44557;51.862;19.378;2023-02-28T11:02:34;13.00;;;8.50;;
58784;SDS011;44557;51.862;19.378;2023-02-28T11:04:43;13.60;;;8.50;;
58784;SDS011;44557;51.862;19.378;2023-02-28T11:06:44;11.10;;;8.20;;
58784;SDS011;44557;51.862;19.378;2023-02-28T11:08:55;11.10;;;7.90;;
58784;SDS011;44557;51.862;19.378;2023-02-28T11:11:04;12.60;;;8.20;;
58784;SDS011;44557;51.862;19.378;2023-02-28T11:13:12;12.90;;;9.00;;
58784;SDS011;44557;51.862;19.378;2023-02-28T11:15:26;12.40;;;8.20;;
58784;SDS011;44557;51.862;19.378;2023-02-28T11:17:30;12.00;;;8.70;;
58784;SDS011;44557;51.862;19.378;2023-02-28T11:19:34;12.90;;;8.60;;
58784;SDS011;44557;51.862;19.378;2023-02-28T11:21:40;11.60;;;8.30;;
58784;SDS011;44557;51.862;19.378;2023-02-28T11:23:54;11.90;;;8.20;;
58784;SDS011;44557;51.862;19.378;2023-02-28T11:26:03;11.90;;;8.30;;
58784;SDS011;44557;51.862;19.378;2023-02-28T11:28:30;14.00;;;8.00;;
58784;SDS011;44557;51.862;19.378;2023-02-28T11:30:37;13.00;;;8.30;;
58784;SDS011;44557;51.862;19.378;2023-02-28T11:32:41;12.80;;;8.40;;
58784;SDS011;44557;51.862;19.378;2023-02-28T11:37:22;13.20;;;8.70;;
58784;SDS011;44557;51.862;19.378;2023-02-28T11:39:25;12.40;;;8.90;;
58784;SDS011;44557;51.862;19.378;2023-02-28T11:41:36;13.20;;;8.60;;
58784;SDS011;44557;51.862;19.378;2023-02-28T11:44:08;14.20;;;8.80;;
58784;SDS011;44557;51.862;19.378;2023-02-28T11:46:49;13.40;;;8.50;;
58784;SDS011;44557;51.862;19.378;2023-02-28T11:51:47;11.70;;;8.30;;
58784;SDS011;44557;51.862;19.378;2023-02-28T11:56:10;11.90;;;8.10;;
58784;SDS011;44557;51.862;19.378;2023-02-28T12:05:49;11.50;;;7.60;;
58784;SDS011;44557;51.862;19.378;2023-02-28T12:10:14;11.00;;;7.20;;
58784;SDS011;44557;51.862;19.378;2023-02-28T12:17:02;11.40;;;7.50;;
58784;SDS011;44557;51.862;19.378;2023-02-28T12:19:26;13.90;;;8.60;;
58784;SDS011;44557;51.862;19.378;2023-02-28T12:28:03;13.00;;;8.20;;
58784;SDS011;44557;51.862;19.378;2023-02-28T12:30:06;13.80;;;8.50;;
58784;SDS011;44557;51.862;19.378;2023-02-28T12:32:32;14.70;;;9.30;;
58784;SDS011;44557;51.862;19.378;2023-02-28T12:34:38;14.80;;;9.50;;
58784;SDS011;44557;51.862;19.378;2023-02-28T12:36:46;13.60;;;9.00;;
58784;SDS011;44557;51.862;19.378;2023-02-28T12:38:51;12.40;;;9.10;;
58784;SDS011;44557;51.862;19.378;2023-02-28T12:43:02;13.70;;;9.30;;
58784;SDS011;44557;51.862;19.378;2023-02-28T12:45:17;14.50;;;8.90;;
58784;SDS011;44557;51.862;19.378;2023-02-28T12:47:23;13.60;;;8.90;;
58784;SDS011;44557;51.862;19.378;2023-02-28T12:49:29;12.90;;;8.30;;
58784;SDS011;44557;51.862;19.378;2023-02-28T12:51:32;13.40;;;8.80;;
58784;SDS011;44557;51.862;19.378;2023-02-28T12:53:39;13.50;;;9.10;;
58784;SDS011;44557;51.862;19.378;2023-02-28T12:56:07;12.70;;;9.00;;
58784;SDS011;44557;51.862;19.378;2023-02-28T12:58:33;13.50;;;9.30;;
58784;SDS011;44557;51.862;19.378;2023-02-28T13:03:17;13.90;;;9.80;;
58784;SDS011;44557;51.862;19.378;2023-02-28T13:09:03;15.10;;;10.10;;
58784;SDS011;44557;51.862;19.378;2023-02-28T13:11:23;16.20;;;10.60;;
58784;SDS011;44557;51.862;19.378;2023-02-28T13:13:38;16.60;;;11.20;;
58784;SDS011;44557;51.862;19.378;2023-02-28T13:15:58;16.20;;;10.60;;
58784;SDS011;44557;51.862;19.378;2023-02-28T13:18:03;14.70;;;10.20;;
58784;SDS011;44557;51.862;19.378;2023-02-28T13:20:04;17.30;;;11.60;;
58784;SDS011;44557;51.862;19.378;2023-02-28T13:22:36;17.80;;;11.50;;
58784;SDS011;44557;51.862;19.378;2023-02-28T13:24:46;15.10;;;10.40;;
58784;SDS011;44557;51.862;19.378;2023-02-28T13:35:37;16.30;;;10.60;;